Time;durP1;ratioP1;P1;durP2;ratioP2;P2;SDS_P1;SDS_P2;PMS_P1;PMS_P2;Temp;Humidity;BMP_temperature;BMP_pressure;BME280_temperature;BME280_humidity;BME280_pressure;Samples;Min_cycle;Max_cycle;Signal;HPM_P1;HPM_P2
2022/01/26 00:05:43;;;;;;;;;;;2.70;99.90;;;;;;4830480;29;20084;-81
2022/01/26 00:06:32;;;;;;;47.95;17.15;;;2.70;99.90;;;;;;4854971;29;20049;-82
2022/01/26 00:08:58;;;;;;;42.53;16.08;;;2.70;99.90;;;;;;4840829;29;20057;-81
2022/01/26 00:11:24;;;;;;;44.00;17.73;;;2.70;99.90;;;;;;4837220;29;20096;-81
2022/01/26 00:13:51;;;;;;;49.47;17.48;;;2.70;99.90;;;;;;4840783;29;20117;-81
2022/01/26 00:16:28;;;;;;;56.40;19.50;;;2.70;99.90;;;;;;4826016;29;20060;-81
2022/01/26 00:19:00;;;;;;;41.95;15.38;;;2.70;99.90;;;;;;4842177;29;20057;-82
2022/01/26 00:21:31;;;;;;;44.05;16.73;;;2.60;99.90;;;;;;4825539;29;20049;-81
2022/01/26 00:26:30;;;;;;;42.55;16.38;;;2.60;99.90;;;;;;4844495;29;20501;-81
2022/01/26 00:29:14;;;;;;;47.33;17.75;;;2.60;99.90;;;;;;4848885;29;20052;-81
2022/01/26 00:40:08;;;;;;;46.83;16.52;;;2.60;99.90;;;;;;4860793;29;20045;-81
2022/01/26 00:42:38;;;;;;;44.75;16.48;;;2.60;99.90;;;;;;4843660;29;20045;-82
2022/01/26 00:45:05;;;;;;;51.80;17.48;;;2.60;99.90;;;;;;4843760;29;20218;-80
2022/01/26 01:16:53;;;;;;;55.22;19.73;;;2.60;99.90;;;;;;1314611;27;20128;-81
2022/01/26 01:19:37;;;;;;;55.33;20.05;;;2.60;99.90;;;;;;4826608;29;20110;-81
2022/01/26 01:30:12;;;;;;;58.60;19.58;;;2.50;99.90;;;;;;4844004;29;20041;-81
2022/01/26 01:32:51;;;;;;;52.83;17.13;;;2.50;99.90;;;;;;4826181;29;20378;-82
2022/01/26 01:35:18;;;;;;;57.90;20.25;;;2.50;99.90;;;;;;4844061;29;20048;-82
2022/01/26 01:37:44;;;;;;;54.50;18.63;;;2.50;99.90;;;;;;4842347;29;20053;-81
2022/01/26 01:40:10;;;;;;;54.78;18.13;;;2.50;99.90;;;;;;4842629;29;20526;-81
2022/01/26 01:42:36;;;;;;;58.92;20.60;;;2.50;99.90;;;;;;4828867;29;20500;-81
2022/01/26 01:45:02;;;;;;;58.28;20.23;;;2.50;99.90;;;;;;4843110;29;20104;-81
2022/01/26 01:47:28;;;;;;;55.65;20.20;;;2.50;99.90;;;;;;4847902;29;20041;-81
2022/01/26 01:49:54;;;;;;;60.05;20.92;;;2.50;99.90;;;;;;4836501;29;20506;-81
2022/01/26 01:52:20;;;;;;;55.75;19.60;;;2.50;99.90;;;;;;4842482;29;20063;-82
2022/01/26 01:54:51;;;;;;;64.90;20.88;;;2.40;99.90;;;;;;4840814;29;20147;-82
2022/01/26 01:57:23;;;;;;;52.97;19.73;;;2.40;99.90;;;;;;4842265;29;20055;-81
2022/01/26 01:59:49;;;;;;;52.65;17.95;;;2.40;99.90;;;;;;4839565;29;20044;-81
2022/01/26 02:02:14;;;;;;;53.22;18.30;;;2.40;99.90;;;;;;4841042;29;20080;-81
2022/01/26 02:04:40;;;;;;;60.90;20.10;;;2.40;99.90;;;;;;4854480;29;20069;-81
2022/01/26 02:07:06;;;;;;;55.45;20.63;;;2.40;99.90;;;;;;4858201;29;20041;-81
2022/01/26 02:09:31;;;;;;;62.95;19.02;;;2.40;99.90;;;;;;4843203;29;20044;-81
2022/01/26 02:12:00;;;;;;;53.38;19.33;;;2.40;99.90;;;;;;4844659;29;20045;-81
2022/01/26 02:14:34;;;;;;;58.30;18.83;;;2.40;99.90;;;;;;4827024;29;20515;-82
2022/01/26 02:19:53;;;;;;;65.63;20.25;;;2.40;99.90;;;;;;4838858;29;20118;-81
2022/01/26 02:58:07;;;;;;;51.53;15.98;;;2.30;99.90;;;;;;4835567;29;20526;-81
2022/01/26 03:00:45;;;;;;;59.38;18.65;;;2.30;99.90;;;;;;4839024;29;20437;-80
2022/01/26 03:03:16;;;;;;;52.85;16.48;;;2.30;99.90;;;;;;4835526;29;20045;-81
2022/01/26 03:05:50;;;;;;;57.15;17.50;;;2.30;99.90;;;;;;4853276;29;20052;-81
2022/01/26 03:08:17;;;;;;;56.42;18.48;;;2.30;99.90;;;;;;4832614;29;20049;-81
2022/01/26 03:10:52;;;;;;;53.90;16.50;;;2.30;99.90;;;;;;4851748;29;20049;-81
2022/01/26 03:13:23;;;;;;;52.33;17.38;;;2.30;99.90;;;;;;4839571;29;20042;-81
2022/01/26 03:15:54;;;;;;;57.38;18.52;;;2.30;99.90;;;;;;4822671;29;20054;-82
2022/01/26 03:20:47;;;;;;;45.97;14.70;;;2.40;99.90;;;;;;4837514;29;20057;-81
2022/01/26 03:31:58;;;;;;;50.08;15.30;;;2.30;99.90;;;;;;4840368;29;20052;-81
2022/01/26 03:34:16;;;;;;;47.50;15.90;;;2.30;99.90;;;;;;4840915;29;20038;-81
2022/01/26 03:36:52;;;;;;;45.53;15.13;;;2.30;99.90;;;;;;4856718;29;20073;-82
2022/01/26 03:39:20;;;;;;;47.75;15.07;;;2.30;99.90;;;;;;4836461;29;20041;-81
2022/01/26 03:41:51;;;;;;;50.00;15.57;;;2.30;99.90;;;;;;4842491;29;20041;-81
2022/01/26 03:44:17;;;;;;;44.88;14.57;;;2.30;99.90;;;;;;4841133;29;20038;-82
2022/01/26 03:46:44;;;;;;;47.25;15.02;;;2.30;99.90;;;;;;4840621;29;20098;-81
2022/01/26 03:49:11;;;;;;;45.85;15.15;;;2.30;99.90;;;;;;4836911;29;20485;-82
2022/01/26 03:51:37;;;;;;;48.58;15.48;;;2.30;99.90;;;;;;4842746;29;20511;-81
2022/01/26 03:54:04;;;;;;;49.80;14.48;;;2.30;99.90;;;;;;4841807;29;20098;-81
2022/01/26 03:56:29;;;;;;;46.20;14.05;;;2.30;99.90;;;;;;4826685;29;20146;-81
2022/01/26 03:58:55;;;;;;;47.58;13.32;;;2.30;99.90;;;;;;4840929;29;20126;-81
2022/01/26 04:01:22;;;;;;;45.17;14.90;;;2.30;99.90;;;;;;4841926;29;20054;-81
2022/01/26 04:03:48;;;;;;;45.17;14.50;;;2.30;99.90;;;;;;4821483;29;20038;-82
2022/01/26 04:06:13;;;;;;;51.22;14.15;;;2.30;99.90;;;;;;4826893;29;20545;-81
2022/01/26 04:08:42;;;;;;;40.80;12.52;;;2.30;99.90;;;;;;4841034;29;20065;-81
2022/01/26 04:11:50;;;;;;;51.35;14.40;;;2.40;99.90;;;;;;4842145;29;20117;-81
2022/01/26 04:13:58;;;;;;;45.05;14.15;;;2.30;99.90;;;;;;4840649;29;20517;-81
2022/01/26 04:16:23;;;;;;;39.80;12.18;;;2.40;99.90;;;;;;4842393;29;20062;-81
2022/01/26 04:18:50;;;;;;;47.58;14.05;;;2.40;99.90;;;;;;4841400;29;20092;-82
2022/01/26 04:23:58;;;;;;;49.60;15.20;;;2.40;99.90;;;;;;4836383;29;20157;-81
2022/01/26 04:26:37;;;;;;;45.13;13.60;;;2.40;99.90;;;;;;4841268;29;20373;-82
2022/01/26 04:29:08;;;;;;;42.95;12.88;;;2.40;99.90;;;;;;4857445;29;20042;-81
2022/01/26 04:31:34;;;;;;;44.08;13.77;;;2.30;99.90;;;;;;4840538;29;20049;-81
2022/01/26 04:34:00;;;;;;;44.35;13.18;;;2.30;99.90;;;;;;4822543;29;20046;-81
2022/01/26 04:36:32;;;;;;;38.47;13.95;;;2.40;99.90;;;;;;4842027;29;20087;-81
2022/01/26 04:39:02;;;;;;;38.67;12.98;;;2.30;99.90;;;;;;4838066;29;20386;-81
2022/01/26 04:43:58;;;;;;;46.17;13.63;;;2.30;99.90;;;;;;4840401;29;20117;-81
2022/01/26 04:46:26;;;;;;;46.20;13.70;;;2.30;99.90;;;;;;4825340;29;20497;-81
2022/01/26 04:48:52;;;;;;;44.30;12.82;;;2.30;99.90;;;;;;4838035;29;20052;-82
2022/01/26 04:51:17;;;;;;;43.25;14.35;;;2.30;99.90;;;;;;4841398;29;20089;-82
2022/01/26 04:53:43;;;;;;;44.22;11.77;;;2.30;99.90;;;;;;4840813;29;20050;-82
2022/01/26 04:56:09;;;;;;;42.03;12.93;;;2.30;99.90;;;;;;4824871;29;20129;-81
2022/01/26 04:58:34;;;;;;;35.67;13.35;;;2.30;99.90;;;;;;4841278;29;20387;-81
2022/01/26 05:01:00;;;;;;;45.58;12.50;;;2.30;99.90;;;;;;4841069;29;20504;-81
2022/01/26 05:03:26;;;;;;;43.35;14.82;;;2.30;99.90;;;;;;4839791;29;20081;-81
2022/01/26 05:05:51;;;;;;;45.15;13.55;;;2.30;99.90;;;;;;4841583;29;20054;-82
2022/01/26 05:08:17;;;;;;;41.38;13.05;;;2.30;99.90;;;;;;4839403;29;20041;-81
2022/01/26 05:10:44;;;;;;;39.03;12.77;;;2.30;99.90;;;;;;4839941;29;20034;-81
2022/01/26 05:13:13;;;;;;;37.55;12.55;;;2.30;99.90;;;;;;4839185;29;20056;-81
2022/01/26 05:15:38;;;;;;;41.10;11.98;;;2.30;99.90;;;;;;4837792;29;20045;-82
2022/01/26 05:18:07;;;;;;;40.03;11.45;;;2.30;99.90;;;;;;4839586;29;20054;-81
2022/01/26 05:20:33;;;;;;;39.25;12.10;;;2.30;99.90;;;;;;4839856;29;20476;-81
2022/01/26 05:22:59;;;;;;;33.33;11.23;;;2.30;99.90;;;;;;4836172;29;20547;-81
2022/01/26 05:25:25;;;;;;;33.88;9.70;;;2.30;99.90;;;;;;4822665;29;20034;-81
2022/01/26 05:27:50;;;;;;;33.60;11.20;;;2.30;99.90;;;;;;4841767;29;20406;-81
2022/01/26 05:30:16;;;;;;;37.38;12.00;;;2.30;99.90;;;;;;4840321;29;20046;-81
2022/01/26 05:32:42;;;;;;;34.47;11.15;;;2.30;99.90;;;;;;4834371;29;20521;-81
2022/01/26 05:35:08;;;;;;;36.63;10.95;;;2.30;99.90;;;;;;4823857;29;20049;-81
2022/01/26 05:37:34;;;;;;;37.20;11.73;;;2.30;99.90;;;;;;4839774;29;20056;-81
2022/01/26 05:40:00;;;;;;;38.58;12.00;;;2.30;99.90;;;;;;4839927;29;20049;-81
2022/01/26 05:42:26;;;;;;;37.55;10.95;;;2.40;99.90;;;;;;4840191;29;20077;-81
2022/01/26 05:44:53;;;;;;;37.85;11.48;;;2.40;99.90;;;;;;4840262;29;20131;-81
2022/01/26 05:47:20;;;;;;;34.42;10.25;;;2.40;99.90;;;;;;4835629;29;20037;-81
2022/01/26 05:49:46;;;;;;;32.33;11.07;;;2.40;99.90;;;;;;4839820;29;20497;-81
2022/01/26 05:52:12;;;;;;;32.58;10.52;;;2.40;99.90;;;;;;4840184;29;20041;-82
2022/01/26 05:54:38;;;;;;;33.63;9.80;;;2.40;99.90;;;;;;4832266;29;20041;-81
2022/01/26 05:57:04;;;;;;;41.45;12.70;;;2.40;99.90;;;;;;4840232;29;20038;-81
2022/01/26 05:59:32;;;;;;;33.80;11.02;;;2.40;99.90;;;;;;4839825;29;20054;-81
2022/01/26 06:01:57;;;;;;;33.63;11.48;;;2.40;99.90;;;;;;4837788;29;20043;-81
2022/01/26 06:04:23;;;;;;;34.05;11.23;;;2.40;99.90;;;;;;4839990;29;20488;-81
2022/01/26 06:06:49;;;;;;;35.35;11.95;;;2.40;99.90;;;;;;4840200;29;20098;-81
2022/01/26 06:09:14;;;;;;;43.83;11.48;;;2.40;99.90;;;;;;4838898;29;20098;-80
2022/01/26 06:11:40;;;;;;;29.48;11.07;;;2.40;99.90;;;;;;4839009;29;20507;-81
2022/01/26 06:14:06;;;;;;;39.25;12.43;;;2.40;99.90;;;;;;4821889;29;20573;-82
2022/01/26 06:16:32;;;;;;;39.72;12.63;;;2.40;99.90;;;;;;4839421;29;20537;-81
2022/01/26 06:18:57;;;;;;;35.17;11.45;;;2.40;99.90;;;;;;4844969;29;20568;-81
2022/01/26 06:21:23;;;;;;;34.83;12.55;;;2.40;99.90;;;;;;4823980;29;20045;-83
2022/01/26 06:23:48;;;;;;;35.55;11.25;;;2.40;99.90;;;;;;4837908;29;20159;-82
2022/01/26 06:26:14;;;;;;;37.75;13.18;;;2.40;99.90;;;;;;4844396;29;20030;-81
2022/01/26 06:28:40;;;;;;;31.30;10.65;;;2.40;99.90;;;;;;4842543;29;20082;-81
2022/01/26 06:31:11;;;;;;;37.30;13.35;;;2.40;99.90;;;;;;4844133;29;20076;-81
2022/01/26 06:33:39;;;;;;;31.33;11.88;;;2.50;99.90;;;;;;4842486;29;20064;-81
2022/01/26 06:36:05;;;;;;;38.85;14.88;;;2.50;99.90;;;;;;4828492;29;20137;-82
2022/01/26 06:38:33;;;;;;;39.00;13.88;;;2.50;99.90;;;;;;4842909;29;20086;-82
2022/01/26 06:41:00;;;;;;;43.28;13.68;;;2.50;99.90;;;;;;4825506;29;20033;-82
2022/01/26 06:43:28;;;;;;;40.25;14.27;;;2.50;99.90;;;;;;4836995;29;20059;-82
2022/01/26 06:45:57;;;;;;;43.88;14.93;;;2.50;99.90;;;;;;4835798;29;20079;-82
2022/01/26 06:49:03;;;;;;;38.97;15.38;;;2.50;99.90;;;;;;4838846;29;20048;-81
2022/01/26 06:51:26;;;;;;;41.15;15.40;;;2.50;99.90;;;;;;4839664;29;20056;-82
2022/01/26 06:53:52;;;;;;;44.05;17.50;;;2.50;99.90;;;;;;4841287;29;20041;-82
2022/01/26 06:56:17;;;;;;;44.65;16.25;;;2.50;99.90;;;;;;4825437;29;20428;-83
2022/01/26 06:58:43;;;;;;;40.25;15.57;;;2.50;99.90;;;;;;4842891;29;20050;-83
2022/01/26 07:01:09;;;;;;;53.00;20.30;;;2.50;99.90;;;;;;4837425;29;20053;-83
2022/01/26 07:03:34;;;;;;;49.72;18.95;;;2.50;99.90;;;;;;4844931;29;20182;-85
2022/01/26 07:06:00;;;;;;;53.03;18.20;;;2.50;99.90;;;;;;4837228;29;20052;-82
2022/01/26 07:08:25;;;;;;;48.20;18.48;;;2.50;99.90;;;;;;4844187;29;20045;-82
2022/01/26 07:10:53;;;;;;;60.67;24.35;;;2.50;99.90;;;;;;4844721;29;20049;-82
2022/01/26 07:13:19;;;;;;;64.20;23.15;;;2.50;99.90;;;;;;4838794;29;20057;-82
2022/01/26 07:23:50;;;;;;;66.65;23.58;;;2.60;99.90;;;;;;4835886;29;20057;-83
2022/01/26 07:26:16;;;;;;;56.78;23.00;;;2.60;99.90;;;;;;4823530;29;20106;-82
2022/01/26 07:28:42;;;;;;;62.20;23.73;;;2.60;99.90;;;;;;4841419;29;20046;-83
2022/01/26 07:31:08;;;;;;;61.95;23.50;;;2.60;99.90;;;;;;4846929;29;20045;-82
2022/01/26 07:33:34;;;;;;;66.80;25.30;;;2.60;99.90;;;;;;4840456;29;20064;-83
2022/01/26 07:36:00;;;;;;;64.47;25.02;;;2.60;99.90;;;;;;4840560;29;20041;-82
2022/01/26 07:38:26;;;;;;;71.03;26.20;;;2.60;99.90;;;;;;4837102;29;20056;-82
2022/01/26 07:40:53;;;;;;;68.72;25.77;;;2.60;99.90;;;;;;4832771;29;20054;-82
2022/01/26 07:43:18;;;;;;;72.43;27.88;;;2.70;99.90;;;;;;4854209;29;20097;-82
2022/01/26 07:45:44;;;;;;;74.30;27.40;;;2.70;99.90;;;;;;4836880;29;20050;-82
2022/01/26 07:48:10;;;;;;;63.00;24.00;;;2.70;99.90;;;;;;4839825;29;20037;-82
2022/01/26 07:50:35;;;;;;;79.88;29.20;;;2.70;99.90;;;;;;4841977;29;20460;-82
2022/01/26 07:53:02;;;;;;;80.68;28.73;;;2.70;99.90;;;;;;4840704;29;20645;-83
2022/01/26 07:55:28;;;;;;;81.63;30.20;;;2.80;99.90;;;;;;4840237;29;20056;-82
2022/01/26 07:57:56;;;;;;;80.40;29.35;;;2.80;99.90;;;;;;4839100;29;20533;-83
2022/01/26 08:00:22;;;;;;;81.97;28.13;;;2.80;99.90;;;;;;4839120;29;20049;-82
2022/01/26 08:02:48;;;;;;;84.35;29.52;;;2.80;99.90;;;;;;4824953;29;20049;-82
2022/01/26 08:05:15;;;;;;;87.30;31.92;;;2.80;99.90;;;;;;4839210;29;20038;-83
2022/01/26 08:07:41;;;;;;;79.15;29.50;;;2.90;99.90;;;;;;4835244;29;20225;-83
2022/01/26 08:10:09;;;;;;;75.15;29.02;;;2.90;99.90;;;;;;4833668;29;20049;-82
2022/01/26 08:12:36;;;;;;;84.45;32.60;;;2.90;99.90;;;;;;4855374;29;20169;-82
2022/01/26 08:15:02;;;;;;;83.32;30.77;;;2.90;99.90;;;;;;4838517;29;20053;-82
2022/01/26 08:17:28;;;;;;;81.20;30.88;;;3.00;99.90;;;;;;4849512;29;20057;-82
2022/01/26 08:19:55;;;;;;;81.07;30.90;;;3.00;99.90;;;;;;4845872;29;20049;-82
2022/01/26 08:22:24;;;;;;;84.00;30.40;;;3.00;99.90;;;;;;4843503;29;20050;-83
2022/01/26 08:24:50;;;;;;;91.30;32.28;;;3.00;99.90;;;;;;4843608;29;20045;-82
2022/01/26 08:27:18;;;;;;;86.53;31.20;;;3.00;99.90;;;;;;4843645;29;20077;-82
2022/01/26 08:29:48;;;;;;;82.30;29.75;;;3.00;99.90;;;;;;4827235;29;20045;-82
2022/01/26 08:32:14;;;;;;;87.70;31.05;;;3.00;99.90;;;;;;4856087;29;20539;-83
2022/01/26 08:34:40;;;;;;;81.78;29.17;;;3.00;99.90;;;;;;4827059;29;20088;-83
2022/01/26 08:37:06;;;;;;;95.75;32.10;;;3.10;99.90;;;;;;4843906;29;20049;-82
2022/01/26 08:39:32;;;;;;;85.22;31.85;;;3.10;99.90;;;;;;4838765;29;20131;-82
2022/01/26 08:42:02;;;;;;;84.60;31.55;;;3.00;99.90;;;;;;4843638;29;20473;-83
2022/01/26 08:44:28;;;;;;;81.40;30.02;;;3.10;99.90;;;;;;4841391;29;20060;-80
2022/01/26 08:46:55;;;;;;;87.05;31.65;;;3.10;99.90;;;;;;4844288;29;20046;-80
2022/01/26 08:49:22;;;;;;;82.60;30.55;;;3.10;99.90;;;;;;4840440;29;20049;-80
2022/01/26 08:51:49;;;;;;;83.57;28.63;;;3.10;99.90;;;;;;4843078;29;20050;-80
2022/01/26 08:54:15;;;;;;;76.88;28.58;;;3.10;99.90;;;;;;4841097;29;20539;-80
2022/01/26 08:56:41;;;;;;;82.68;30.35;;;3.20;99.90;;;;;;4841609;29;20152;-81
2022/01/26 08:59:07;;;;;;;83.75;30.30;;;3.20;99.90;;;;;;4838292;29;20037;-81
2022/01/26 09:01:32;;;;;;;81.45;29.65;;;3.20;99.90;;;;;;4841828;29;20456;-82
2022/01/26 09:03:58;;;;;;;87.88;31.15;;;3.30;99.90;;;;;;4844088;29;20041;-81
2022/01/26 09:06:24;;;;;;;90.35;30.38;;;3.20;99.90;;;;;;4843159;29;20168;-80
2022/01/26 09:09:00;;;;;;;92.25;33.65;;;3.30;99.90;;;;;;4857752;29;20080;-80
2022/01/26 09:11:26;;;;;;;87.93;30.92;;;3.30;99.90;;;;;;4843147;29;20423;-81
2022/01/26 09:13:57;;;;;;;78.43;28.73;;;3.30;99.90;;;;;;4841648;29;20132;-81
2022/01/26 09:16:24;;;;;;;86.55;30.45;;;3.30;99.90;;;;;;4859664;29;20065;-80
2022/01/26 09:18:57;;;;;;;89.28;30.20;;;3.30;99.90;;;;;;4843759;29;20061;-80
2022/01/26 09:21:24;;;;;;;88.07;28.60;;;3.30;99.90;;;;;;4822951;29;20113;-80
2022/01/26 09:23:51;;;;;;;88.50;29.70;;;3.30;99.90;;;;;;4824156;29;20057;-80
2022/01/26 09:26:18;;;;;;;83.63;29.25;;;3.30;99.90;;;;;;4840440;29;20081;-80
2022/01/26 09:28:44;;;;;;;90.55;30.45;;;3.40;99.90;;;;;;4839787;29;20069;-81
2022/01/26 09:31:10;;;;;;;85.50;30.10;;;3.30;99.90;;;;;;4839605;29;20084;-80
2022/01/26 09:33:36;;;;;;;80.38;29.45;;;3.40;99.90;;;;;;4822978;29;20448;-80
2022/01/26 09:36:02;;;;;;;84.30;29.38;;;3.30;99.90;;;;;;4836264;29;20412;-81
2022/01/26 09:38:28;;;;;;;90.30;30.30;;;3.30;99.90;;;;;;4837544;29;20085;-81
2022/01/26 09:40:54;;;;;;;91.30;29.38;;;3.40;99.90;;;;;;4824913;29;20079;-80
2022/01/26 09:43:19;;;;;;;83.95;29.08;;;3.40;99.90;;;;;;4853842;29;20041;-79
2022/01/26 09:45:46;;;;;;;72.97;27.23;;;3.30;99.90;;;;;;4839406;29;20110;-80
2022/01/26 09:48:13;;;;;;;67.07;26.48;;;3.40;99.90;;;;;;4858916;29;20041;-81
2022/01/26 09:50:44;;;;;;;60.50;23.42;;;3.50;99.90;;;;;;4842035;29;20060;-81
2022/01/26 09:53:15;;;;;;;59.72;23.05;;;3.50;99.90;;;;;;4825350;29;20049;-81
2022/01/26 09:55:42;;;;;;;58.08;23.88;;;3.50;99.90;;;;;;4840938;29;20079;-81
2022/01/26 09:58:09;;;;;;;54.05;21.88;;;3.60;99.90;;;;;;4849572;29;20050;-81
2022/01/26 10:00:35;;;;;;;52.25;21.85;;;3.60;99.90;;;;;;4841038;29;20404;-81
2022/01/26 10:03:05;;;;;;;53.08;21.38;;;3.60;99.90;;;;;;4855189;29;20048;-81
2022/01/26 10:05:44;;;;;;;46.50;20.70;;;3.70;99.90;;;;;;4822424;29;20129;-81
2022/01/26 10:16:38;;;;;;;48.72;21.63;;;3.70;99.90;;;;;;4848277;29;20453;-81
2022/01/26 10:19:00;;;;;;;52.08;21.73;;;3.70;99.90;;;;;;4839502;29;20117;-81
2022/01/26 10:21:25;;;;;;;51.22;21.23;;;3.70;99.90;;;;;;4851815;29;20042;-81
2022/01/26 10:23:52;;;;;;;53.38;19.52;;;3.80;99.90;;;;;;4820499;29;20029;-81
2022/01/26 10:26:19;;;;;;;55.50;21.00;;;3.70;99.90;;;;;;4838640;29;20040;-81
2022/01/26 10:28:56;;;;;;;57.70;21.13;;;3.80;99.90;;;;;;4855706;29;20105;-81
2022/01/26 10:31:31;;;;;;;54.20;21.80;;;3.70;99.90;;;;;;4838099;29;20050;-80
2022/01/26 10:34:10;;;;;;;49.35;21.27;;;3.80;99.90;;;;;;4821317;29;20105;-81
2022/01/26 10:36:46;;;;;;;57.58;22.50;;;3.80;99.90;;;;;;4839485;29;20096;-81
2022/01/26 10:39:19;;;;;;;57.15;23.92;;;3.80;99.90;;;;;;4835870;29;20065;-81
2022/01/26 10:41:45;;;;;;;57.13;21.15;;;3.80;99.90;;;;;;4839261;29;20046;-80
2022/01/26 10:44:11;;;;;;;60.10;22.88;;;3.80;99.90;;;;;;4837810;29;20400;-81
2022/01/26 10:46:41;;;;;;;54.65;20.70;;;3.80;99.90;;;;;;4838263;29;20041;-81
2022/01/26 10:49:32;;;;;;;57.75;22.25;;;3.80;99.90;;;;;;4842173;29;20071;-80
2022/01/26 10:52:04;;;;;;;53.67;20.90;;;3.90;99.90;;;;;;4837462;29;20053;-81
2022/01/26 10:54:38;;;;;;;56.80;21.67;;;3.90;99.90;;;;;;4835806;29;20448;-80
2022/01/26 10:57:07;;;;;;;53.85;20.65;;;3.90;99.90;;;;;;4859124;29;20049;-80
2022/01/26 10:59:39;;;;;;;55.05;21.48;;;3.90;99.90;;;;;;4835008;29;20042;-81
2022/01/26 11:02:05;;;;;;;54.67;22.23;;;3.90;99.90;;;;;;4841038;29;20153;-81
2022/01/26 11:04:37;;;;;;;53.08;20.02;;;3.90;99.90;;;;;;4835556;29;20399;-81
2022/01/26 11:07:05;;;;;;;47.70;19.07;;;3.90;99.90;;;;;;4842717;29;20056;-81
2022/01/26 11:09:34;;;;;;;44.05;18.23;;;4.00;99.90;;;;;;4836068;29;20038;-80
2022/01/26 11:12:04;;;;;;;45.63;18.13;;;4.00;99.90;;;;;;4839541;29;20382;-81
2022/01/26 11:14:49;;;;;;;42.83;17.15;;;4.00;99.90;;;;;;4838000;29;20056;-81
2022/01/26 11:17:36;;;;;;;47.20;21.48;;;4.00;99.90;;;;;;4835956;29;20584;-80
2022/01/26 11:20:33;;;;;;;52.63;19.17;;;4.10;99.90;;;;;;4838565;29;20500;-81
2022/01/26 11:23:04;;;;;;;46.42;18.80;;;4.00;99.90;;;;;;4839273;29;20197;-82
2022/01/26 11:25:43;;;;;;;48.42;17.40;;;4.00;99.90;;;;;;4824397;29;20057;-81
2022/01/26 11:28:27;;;;;;;47.50;17.83;;;4.00;99.90;;;;;;4838094;29;20050;-81
2022/01/26 11:31:00;;;;;;;47.38;18.20;;;4.10;99.90;;;;;;4854517;29;20396;-81
2022/01/26 11:33:29;;;;;;;48.47;19.48;;;4.10;99.90;;;;;;4837951;29;20046;-82
2022/01/26 11:35:57;;;;;;;50.13;18.60;;;4.10;99.90;;;;;;4841604;29;20065;-82
2022/01/26 11:46:55;;;;;;;60.70;22.80;;;4.10;99.90;;;;;;4839817;29;20046;-81
2022/01/26 11:49:31;;;;;;;58.85;23.02;;;4.00;99.90;;;;;;4840280;29;20173;-81
2022/01/26 11:51:57;;;;;;;54.60;21.15;;;4.00;99.90;;;;;;4848826;29;20042;-81
2022/01/26 11:54:52;;;;;;;48.60;19.23;;;4.00;99.90;;;;;;4842821;29;20037;-81
2022/01/26 11:57:21;;;;;;;43.40;18.60;;;4.10;99.90;;;;;;4837046;29;20061;-81
2022/01/26 11:59:59;;;;;;;47.65;18.27;;;4.10;99.90;;;;;;4858486;29;20053;-81
2022/01/26 12:02:50;;;;;;;46.90;18.08;;;4.10;99.90;;;;;;4856820;29;20057;-82
2022/01/26 12:05:21;;;;;;;40.53;16.98;;;4.10;99.90;;;;;;4834291;29;20044;-82
2022/01/26 12:07:47;;;;;;;43.97;17.50;;;4.10;99.90;;;;;;4843111;29;20041;-82
2022/01/26 12:10:26;;;;;;;37.92;15.63;;;4.10;99.90;;;;;;4856495;29;20062;-82
2022/01/26 12:13:12;;;;;;;44.90;18.35;;;4.20;99.90;;;;;;4838214;29;20044;-82
2022/01/26 12:16:01;;;;;;;38.85;16.02;;;4.20;99.90;;;;;;4828558;29;20053;-82
2022/01/26 12:18:33;;;;;;;36.22;15.55;;;4.20;99.90;;;;;;4854604;29;20066;-82
2022/01/26 12:32:46;;;;;;;46.00;16.80;;;4.20;99.90;;;;;;4854215;29;20139;-81
2022/01/26 12:35:44;;;;;;;44.65;17.80;;;4.20;99.90;;;;;;4837213;29;20595;-86
2022/01/26 12:38:05;;;;;;;51.00;18.17;;;4.30;99.90;;;;;;4838974;29;20454;-81
2022/01/26 12:43:49;;;;;;;46.35;17.75;;;4.30;99.90;;;;;;4840050;29;20585;-82
2022/01/26 12:46:17;;;;;;;47.58;18.90;;;4.30;99.90;;;;;;4838360;29;20042;-82
2022/01/26 12:48:52;;;;;;;42.78;17.00;;;4.30;99.90;;;;;;4841252;29;20053;-82
2022/01/26 12:51:19;;;;;;;45.25;18.75;;;4.30;99.90;;;;;;4854714;29;21104;-82
2022/01/26 12:53:50;;;;;;;39.85;17.33;;;4.30;99.90;;;;;;4820662;29;20037;-82
2022/01/26 12:56:15;;;;;;;41.92;17.02;;;4.30;99.90;;;;;;4838756;29;20397;-82
2022/01/26 12:58:42;;;;;;;45.28;18.15;;;4.20;99.90;;;;;;4840341;29;20045;-82
2022/01/26 13:01:10;;;;;;;45.95;18.75;;;4.20;99.90;;;;;;4841972;29;20053;-82
2022/01/26 13:03:41;;;;;;;45.28;18.85;;;4.20;99.90;;;;;;4838760;29;20045;-82
2022/01/26 13:06:09;;;;;;;42.30;17.75;;;4.20;99.90;;;;;;4838757;29;20080;-81
2022/01/26 13:08:42;;;;;;;46.58;18.83;;;4.20;99.90;;;;;;4840961;29;20050;-81
2022/01/26 13:11:08;;;;;;;50.72;18.70;;;4.20;99.90;;;;;;4839790;29;20049;-82
2022/01/26 13:13:34;;;;;;;43.80;18.58;;;4.20;99.90;;;;;;4856820;29;20037;-82
2022/01/26 13:16:12;;;;;;;45.33;18.63;;;4.20;99.90;;;;;;4837471;29;20056;-82
2022/01/26 13:21:37;;;;;;;45.15;18.23;;;4.20;99.90;;;;;;4835441;29;20168;-81
2022/01/26 13:26:44;;;;;;;43.47;17.30;;;4.20;99.90;;;;;;4836167;29;20637;-81
2022/01/26 13:30:07;;;;;;;48.65;19.02;;;4.20;99.90;;;;;;4836963;29;21890;-81
2022/01/26 13:35:06;;;;;;;49.78;18.27;;;4.30;99.90;;;;;;4835538;29;20408;-81
2022/01/26 13:43:31;;;;;;;45.25;17.90;;;4.40;99.90;;;;;;4839062;29;20057;-81
2022/01/26 13:46:47;;;;;;;48.28;18.90;;;4.40;99.90;;;;;;4839411;29;20045;-81
2022/01/26 13:51:12;;;;;;;45.13;18.98;;;4.40;99.90;;;;;;4837643;29;20413;-81
2022/01/26 13:53:50;;;;;;;44.47;18.63;;;4.30;99.90;;;;;;4837781;29;20441;-82
2022/01/26 13:59:10;;;;;;;45.15;19.42;;;4.40;99.90;;;;;;4840859;29;20089;-82
2022/01/26 14:01:41;;;;;;;52.05;17.95;;;4.40;99.90;;;;;;4823230;29;20098;-82
2022/01/26 14:04:07;;;;;;;45.33;18.60;;;4.50;99.90;;;;;;4833411;29;20376;-82
2022/01/26 14:06:32;;;;;;;42.45;17.58;;;4.50;99.90;;;;;;4837382;29;20113;-82
2022/01/26 14:08:58;;;;;;;44.15;16.98;;;4.50;99.90;;;;;;4829186;29;20465;-82
2022/01/26 14:11:24;;;;;;;40.88;16.55;;;4.60;99.90;;;;;;4823045;29;20033;-82
2022/01/26 14:13:52;;;;;;;39.63;16.88;;;4.60;99.90;;;;;;4825362;29;20042;-82
2022/01/26 14:16:19;;;;;;;41.30;16.38;;;4.70;99.90;;;;;;4836161;29;20049;-82
2022/01/26 14:18:50;;;;;;;41.33;16.23;;;4.70;99.90;;;;;;4823162;29;20198;-82
2022/01/26 14:21:28;;;;;;;38.35;16.50;;;4.70;99.90;;;;;;4850373;29;20099;-82
2022/01/26 14:24:11;;;;;;;43.00;17.42;;;4.70;99.90;;;;;;4838663;29;20488;-82
2022/01/26 14:26:38;;;;;;;41.25;16.55;;;4.70;99.90;;;;;;4838146;29;20041;-82
2022/01/26 14:29:13;;;;;;;45.05;17.17;;;4.70;99.90;;;;;;4836148;29;20045;-82
2022/01/26 14:31:59;;;;;;;42.00;17.90;;;4.70;99.90;;;;;;4848158;29;20110;-81
2022/01/26 15:18:59;;;;;;;48.08;17.02;;;4.60;99.90;;;;;;4855438;29;20623;-81
2022/01/26 15:19:15;;;;;;;47.35;16.02;;;4.60;99.90;;;;;;4838456;29;20148;-81
2022/01/26 15:32:10;;;;;;;52.92;16.90;;;4.70;99.90;;;;;;4849057;29;20045;-81
2022/01/26 15:50:09;;;;;;;39.72;15.35;;;4.70;99.90;;;;;;4837926;29;20036;-81
2022/01/26 16:17:22;;;;;;;39.65;16.02;;;4.90;99.90;;;;;;4849155;29;20420;-81
2022/01/26 16:39:27;;;;;;;39.60;16.50;;;5.00;99.90;;;;;;4839842;29;20118;-81
2022/01/26 17:12:29;;;;;;;35.35;14.43;;;5.00;99.90;;;;;;4836315;29;20092;-81
2022/01/26 17:26:54;;;;;;;42.80;16.80;;;5.10;99.90;;;;;;4853583;29;20042;-81
2022/01/26 17:55:16;;;;;;;32.88;14.52;;;5.00;99.90;;;;;;4835729;29;20045;-81
2022/01/26 18:05:44;;;;;;;30.25;13.80;;;5.10;99.90;;;;;;4837981;29;20110;-80
2022/01/26 18:15:35;;;;;;;29.45;12.20;;;5.20;99.90;;;;;;4854603;29;20427;-81
2022/01/26 18:50:04;;;;;;;47.10;16.15;;;5.10;99.90;;;;;;4849321;29;20042;-80
2022/01/26 18:52:29;;;;;;;36.28;15.80;;;5.10;99.90;;;;;;4840384;29;20069;-80
2022/01/26 18:54:55;;;;;;;37.15;16.60;;;5.10;99.90;;;;;;4839360;29;20080;-81
2022/01/26 18:57:20;;;;;;;34.58;16.48;;;5.10;99.90;;;;;;4841167;29;20046;-81
2022/01/26 18:59:46;;;;;;;41.38;18.40;;;5.10;99.90;;;;;;4841046;29;20121;-80
2022/01/26 19:02:13;;;;;;;42.97;17.60;;;5.10;99.90;;;;;;4858173;29;20065;-80
2022/01/26 19:04:46;;;;;;;36.42;17.88;;;5.10;99.90;;;;;;4834343;29;20073;-81
2022/01/26 19:07:12;;;;;;;42.05;17.23;;;5.10;99.90;;;;;;4841739;29;20052;-80
2022/01/26 19:09:42;;;;;;;38.47;17.15;;;5.10;99.90;;;;;;4835523;29;20056;-81
2022/01/26 19:12:12;;;;;;;37.55;16.15;;;5.10;99.90;;;;;;4841299;29;20052;-80
2022/01/26 19:14:41;;;;;;;42.67;18.73;;;5.10;99.90;;;;;;4828887;29;20108;-81
2022/01/26 19:17:15;;;;;;;43.40;19.17;;;5.10;99.90;;;;;;4837713;29;20466;-80
2022/01/26 19:27:53;;;;;;;44.05;19.85;;;5.10;99.90;;;;;;4857918;29;20049;-80
2022/01/26 19:52:11;;;;;;;44.15;19.08;;;5.00;99.90;;;;;;4839700;29;20046;-82